createdAt,value
2019-04-01T00:01:10.216Z,3.53
2019-04-01T00:03:38.676Z,3.50
2019-04-01T00:06:07.109Z,3.23
2019-04-01T00:08:35.587Z,3.40
2019-04-01T00:11:04.053Z,3.50
2019-04-01T00:13:33.315Z,4.73
2019-04-01T00:16:01.806Z,3.50
2019-04-01T00:18:30.262Z,3.57
2019-04-01T00:20:58.700Z,3.90
2019-04-01T00:23:27.216Z,3.30
2019-04-01T00:25:55.654Z,3.67
2019-04-01T00:28:24.139Z,3.63
2019-04-01T00:30:52.571Z,3.40
2019-04-01T00:33:21.657Z,3.10
2019-04-01T00:35:50.123Z,3.73
2019-04-01T00:38:18.687Z,3.63
2019-04-01T00:40:47.158Z,3.00
2019-04-01T00:43:19.690Z,3.47
2019-04-01T00:45:49.794Z,3.40
2019-04-01T00:48:18.266Z,2.90
2019-04-01T00:50:46.737Z,3.20
2019-04-01T00:53:18.015Z,2.97
2019-04-01T00:55:45.367Z,3.00
2019-04-01T00:58:13.840Z,3.30
2019-04-01T01:00:42.307Z,3.00
2019-04-01T01:03:11.237Z,3.30
2019-04-01T01:05:39.690Z,3.10
2019-04-01T01:08:08.160Z,3.17
2019-04-01T01:10:36.716Z,3.17
2019-04-01T01:13:05.238Z,3.53
2019-04-01T01:15:33.658Z,3.17
2019-04-01T01:18:02.134Z,3.10
2019-04-01T01:20:30.581Z,2.80
2019-04-01T01:22:59.070Z,3.43
2019-04-01T01:25:27.530Z,3.17
2019-04-01T01:27:56.006Z,2.63
2019-04-01T01:30:24.469Z,3.10
2019-04-01T01:32:52.939Z,3.27
2019-04-01T01:35:21.414Z,2.83
2019-04-01T01:37:49.882Z,2.90
2019-04-01T01:40:18.343Z,3.53
2019-04-01T01:42:46.839Z,3.70
2019-04-01T01:45:15.251Z,3.40
2019-04-01T01:47:43.730Z,3.10
2019-04-01T01:50:12.237Z,2.90
2019-04-01T01:52:40.718Z,2.83
2019-04-01T01:55:09.237Z,3.00
2019-04-01T01:57:37.686Z,2.90
2019-04-01T02:00:06.434Z,2.90
2019-04-01T02:02:34.924Z,3.40
2019-04-01T02:05:03.760Z,2.80
2019-04-01T02:07:32.238Z,3.07
2019-04-01T02:10:00.721Z,2.70
2019-04-01T02:12:29.238Z,3.37
2019-04-01T02:14:57.671Z,2.90
2019-04-01T02:17:26.175Z,3.20
2019-04-01T02:19:54.636Z,3.40
2019-04-01T02:22:23.118Z,2.67
2019-04-01T02:24:51.748Z,2.50
2019-04-01T02:27:20.205Z,2.90
2019-04-01T02:29:48.748Z,2.40
2019-04-01T02:32:17.216Z,2.77
2019-04-01T02:34:45.672Z,2.50
2019-04-01T02:37:14.186Z,2.77
2019-04-01T02:39:42.670Z,2.37
2019-04-01T02:42:11.129Z,2.20
2019-04-01T02:44:39.631Z,2.40
2019-04-01T02:47:08.108Z,2.87
2019-04-01T02:49:36.560Z,2.90
2019-04-01T02:52:05.111Z,3.00
2019-04-01T02:54:33.549Z,2.67
2019-04-01T02:57:02.029Z,3.10
2019-04-01T02:59:30.482Z,2.60
2019-04-01T03:01:58.964Z,2.70
2019-04-01T03:04:27.413Z,2.40
2019-04-01T03:06:55.899Z,2.60
2019-04-01T03:09:24.346Z,2.07
2019-04-01T03:11:52.851Z,2.20
2019-04-01T03:14:21.290Z,2.20
2019-04-01T03:16:49.843Z,2.37
2019-04-01T03:19:18.293Z,2.37
2019-04-01T03:21:46.781Z,1.97
2019-04-01T03:24:15.226Z,2.13
2019-04-01T03:26:43.713Z,3.10
2019-04-01T03:29:12.163Z,2.40
2019-04-01T03:31:40.657Z,2.20
2019-04-01T03:34:09.096Z,2.13
2019-04-01T03:36:37.597Z,2.20
2019-04-01T03:39:06.522Z,2.63
2019-04-01T03:41:35.015Z,2.07
2019-04-01T03:44:03.477Z,2.57
2019-04-01T03:46:31.964Z,3.63
2019-04-01T03:49:00.468Z,2.70
2019-04-01T03:51:28.924Z,2.27
2019-04-01T03:53:57.416Z,2.30
2019-04-01T03:56:25.905Z,2.10
2019-04-01T03:58:54.344Z,2.60
2019-04-01T04:01:22.869Z,2.40
2019-04-01T04:03:51.305Z,2.30
2019-04-01T04:06:19.848Z,2.03
2019-04-01T04:08:48.310Z,2.67
2019-04-01T04:11:16.802Z,2.27
2019-04-01T04:13:45.251Z,2.10
2019-04-01T04:16:13.900Z,2.37
2019-04-01T04:18:42.337Z,2.17
2019-04-01T04:21:10.830Z,2.20
2019-04-01T04:23:39.270Z,2.37
2019-04-01T04:26:07.776Z,2.07
2019-04-01T04:28:36.226Z,2.20
2019-04-01T04:31:04.714Z,2.77
2019-04-01T04:33:33.197Z,2.03
2019-04-01T04:36:01.687Z,1.87
2019-04-01T04:38:30.123Z,2.13
2019-04-01T04:40:58.609Z,2.50
2019-04-01T04:43:27.049Z,2.57
2019-04-01T04:45:55.545Z,2.70
2019-04-01T04:48:23.984Z,2.87
2019-04-01T04:50:52.552Z,2.13
2019-04-01T04:53:21.009Z,2.40
2019-04-01T04:55:49.505Z,2.57
2019-04-01T04:58:17.944Z,2.37
2019-04-01T05:00:46.397Z,2.43
2019-04-01T05:03:14.878Z,2.70
2019-04-01T05:05:43.366Z,3.13
2019-04-01T05:08:11.837Z,3.30
2019-04-01T05:10:40.310Z,3.30
2019-04-01T05:13:08.767Z,3.40
2019-04-01T05:15:37.360Z,3.90
2019-04-01T05:18:05.840Z,3.90
2019-04-01T05:20:35.082Z,4.57
2019-04-01T05:23:03.661Z,3.80
2019-04-01T05:25:32.247Z,3.37
2019-04-01T05:28:02.369Z,4.10
2019-04-01T05:30:32.126Z,3.73
2019-04-01T05:33:01.279Z,3.57
2019-04-01T05:35:33.304Z,3.97
2019-04-01T05:38:01.803Z,3.60
2019-04-01T05:40:30.452Z,3.63
2019-04-01T05:42:59.332Z,3.77
2019-04-01T05:45:27.955Z,3.20
2019-04-01T05:47:56.751Z,3.73
2019-04-01T05:50:25.364Z,5.03
2019-04-01T05:52:53.866Z,3.87
2019-04-01T05:55:22.369Z,3.60
2019-04-01T05:57:50.803Z,4.27
2019-04-01T06:00:23.784Z,3.83
2019-04-01T06:02:52.780Z,4.00
2019-04-01T06:05:21.237Z,4.90
2019-04-01T06:07:49.800Z,4.40
2019-04-01T06:10:18.313Z,5.00
2019-04-01T06:12:46.895Z,4.03
2019-04-01T06:15:15.400Z,4.00
2019-04-01T06:17:43.944Z,4.10
2019-04-01T06:20:12.452Z,4.03
2019-04-01T06:22:40.930Z,3.90
2019-04-01T06:25:09.774Z,3.97
2019-04-01T06:27:38.227Z,4.10
2019-04-01T06:30:07.731Z,4.43
2019-04-01T06:32:36.196Z,3.63
2019-04-01T06:35:05.865Z,3.97
2019-04-01T06:37:34.491Z,3.57
2019-04-01T06:40:03.538Z,3.33
2019-04-01T06:42:32.031Z,3.03
2019-04-01T06:45:00.607Z,2.90
2019-04-01T06:47:29.838Z,2.80
2019-04-01T06:49:58.544Z,2.73
2019-04-01T06:52:27.005Z,2.60
2019-04-01T06:54:55.466Z,3.00
2019-04-01T06:57:23.959Z,3.03
2019-04-01T06:59:52.434Z,2.53
2019-04-01T07:02:20.886Z,2.90
2019-04-01T07:04:49.341Z,2.47
2019-04-01T07:07:19.505Z,3.33
2019-04-01T07:09:50.657Z,3.00
2019-04-01T07:12:18.426Z,2.27
2019-04-01T07:14:46.871Z,3.03
2019-04-01T07:17:15.321Z,2.63
2019-04-01T07:19:43.779Z,3.03
2019-04-01T07:22:12.295Z,3.60
2019-04-01T07:24:40.884Z,2.50
2019-04-01T07:27:09.341Z,2.67
2019-04-01T07:29:37.875Z,3.47
2019-04-01T07:32:06.330Z,2.83
2019-04-01T07:34:34.786Z,2.97
2019-04-01T07:37:03.241Z,2.73
2019-04-01T07:39:31.699Z,2.30
2019-04-01T07:42:00.174Z,2.47
2019-04-01T07:44:28.685Z,2.70
2019-04-01T07:46:57.154Z,2.47
2019-04-01T07:49:25.716Z,2.67
2019-04-01T07:51:54.246Z,2.20
2019-04-01T07:54:22.665Z,2.20
2019-04-01T07:56:51.157Z,1.83
2019-04-01T07:59:19.594Z,2.10
2019-04-01T08:01:48.132Z,1.93
2019-04-01T08:04:16.625Z,2.10
2019-04-01T08:06:45.165Z,2.27
2019-04-01T08:09:13.615Z,2.10
2019-04-01T08:11:42.098Z,2.40
2019-04-01T08:14:10.539Z,2.57
2019-04-01T08:16:39.122Z,1.70
2019-04-01T08:19:07.578Z,2.20
2019-04-01T08:21:36.050Z,2.07
2019-04-01T08:24:04.775Z,2.20
2019-04-01T08:26:33.327Z,1.70
2019-04-01T08:29:01.869Z,2.20
2019-04-01T08:31:30.362Z,2.13
2019-04-01T08:33:58.884Z,1.77
2019-04-01T08:36:27.416Z,1.90
2019-04-01T08:38:55.892Z,1.30
2019-04-01T08:41:24.318Z,1.57
2019-04-01T08:43:52.868Z,1.40
2019-04-01T08:46:21.290Z,1.90
2019-04-01T08:48:49.956Z,2.03
2019-04-01T08:51:18.383Z,1.37
2019-04-01T08:53:46.873Z,1.47
2019-04-01T08:56:15.273Z,1.20
2019-04-01T08:58:43.742Z,1.60
2019-04-01T09:01:12.220Z,2.07
2019-04-01T09:03:40.768Z,1.50
2019-04-01T09:06:09.357Z,1.47
2019-04-01T09:08:38.005Z,1.60
2019-04-01T09:11:06.473Z,1.70
2019-04-01T09:13:34.988Z,1.40
2019-04-01T09:16:04.005Z,1.50
2019-04-01T09:18:32.535Z,2.17
2019-04-01T09:21:00.988Z,1.50
2019-04-01T09:23:29.433Z,1.67
2019-04-01T09:25:57.894Z,1.27
2019-04-01T09:28:26.342Z,2.20
2019-04-01T09:30:54.786Z,1.30
2019-04-01T09:33:23.245Z,2.03
2019-04-01T09:35:51.686Z,1.90
2019-04-01T09:38:20.137Z,1.90
2019-04-01T09:40:48.637Z,1.40
2019-04-01T09:43:17.462Z,1.40
2019-04-01T09:45:45.898Z,1.80
2019-04-01T09:48:14.380Z,1.50
2019-04-01T09:50:42.810Z,1.50
2019-04-01T09:53:11.322Z,1.83
2019-04-01T09:55:39.765Z,1.43
2019-04-01T09:58:08.234Z,1.63
2019-04-01T10:00:36.683Z,1.80
2019-04-01T10:03:05.160Z,2.10
2019-04-01T10:05:33.659Z,1.90
2019-04-01T10:08:02.126Z,1.73
2019-04-01T10:10:30.553Z,2.10
2019-04-01T10:12:59.036Z,2.13
2019-04-01T10:15:27.465Z,1.90
2019-04-01T10:17:55.934Z,2.10
2019-04-01T10:20:24.429Z,2.23
2019-04-01T10:22:52.952Z,1.97
2019-04-01T10:25:21.472Z,1.60
2019-04-01T10:27:50.170Z,2.17
2019-04-01T10:30:18.878Z,1.40
2019-04-01T10:32:47.357Z,2.20
2019-04-01T10:35:15.864Z,1.70
2019-04-01T10:37:44.330Z,1.60
2019-04-01T10:40:13.467Z,1.80
2019-04-01T10:42:41.943Z,2.10
2019-04-01T10:45:10.651Z,1.83
2019-04-01T10:47:39.220Z,1.47
2019-04-01T10:50:09.486Z,1.60
2019-04-01T10:52:37.936Z,1.63
2019-04-01T10:55:06.861Z,1.57
2019-04-01T10:57:35.450Z,1.70
2019-04-01T11:00:08.988Z,1.87
2019-04-01T11:02:37.484Z,2.20
2019-04-01T11:05:08.771Z,1.50
2019-04-01T11:07:37.559Z,2.50
2019-04-01T11:10:11.056Z,1.80
2019-04-01T11:12:38.043Z,2.30
2019-04-01T11:15:07.608Z,1.97
2019-04-01T11:17:36.085Z,2.47
2019-04-01T11:20:05.662Z,1.87
2019-04-01T11:22:34.166Z,1.57
2019-04-01T11:25:02.783Z,1.80
2019-04-01T11:27:31.256Z,1.70
2019-04-01T11:29:59.706Z,1.60
2019-04-01T11:32:28.206Z,1.60
2019-04-01T11:34:56.696Z,1.90
2019-04-01T11:37:25.221Z,1.67
2019-04-01T11:39:53.655Z,2.07
2019-04-01T11:42:23.061Z,2.30
2019-04-01T11:44:52.543Z,2.40
2019-04-01T11:47:22.259Z,1.50
2019-04-01T11:49:50.921Z,1.50
2019-04-01T11:52:20.915Z,1.67
2019-04-01T11:54:50.655Z,2.10
2019-04-01T11:57:19.123Z,1.53
2019-04-01T11:59:47.571Z,2.20
2019-04-01T12:02:16.627Z,2.00
2019-04-01T12:04:46.309Z,2.07
2019-04-01T12:07:14.831Z,2.33
2019-04-01T12:09:43.284Z,2.17
2019-04-01T12:12:22.846Z,2.10
2019-04-01T12:14:41.914Z,2.00
2019-04-01T12:17:10.392Z,2.50
2019-04-01T12:19:40.089Z,2.30
2019-04-01T12:22:08.902Z,2.23
2019-04-01T12:24:37.456Z,2.33
2019-04-01T12:27:05.920Z,2.00
2019-04-01T12:29:34.377Z,2.03
2019-04-01T12:32:02.928Z,2.10
2019-04-01T12:34:31.670Z,2.80
2019-04-01T12:37:00.164Z,2.30
2019-04-01T12:39:28.615Z,2.70
2019-04-01T12:41:57.112Z,2.20
2019-04-01T12:44:25.682Z,2.37
2019-04-01T12:46:54.139Z,1.73
2019-04-01T12:49:22.623Z,2.77
2019-04-01T12:51:51.088Z,2.60
2019-04-01T12:54:19.523Z,1.80
2019-04-01T12:56:48.030Z,2.37
2019-04-01T12:59:16.477Z,2.23
2019-04-01T13:01:44.972Z,1.97
2019-04-01T13:04:13.406Z,2.23
2019-04-01T13:06:41.874Z,2.00
2019-04-01T13:09:10.381Z,1.90
2019-04-01T13:11:38.860Z,2.20
2019-04-01T13:14:07.295Z,2.10
2019-04-01T13:16:35.814Z,1.80
2019-04-01T13:19:04.264Z,2.10
2019-04-01T13:21:34.611Z,2.00
2019-04-01T13:24:02.939Z,1.90
2019-04-01T13:26:31.497Z,2.30
2019-04-01T13:28:59.927Z,1.83
2019-04-01T13:31:28.418Z,2.20
2019-04-01T13:33:56.885Z,2.00
2019-04-01T13:36:25.362Z,1.70
2019-04-01T13:38:53.870Z,1.90
2019-04-01T13:41:25.073Z,2.00
2019-04-01T13:43:53.042Z,1.90
2019-04-01T13:46:21.493Z,1.97
2019-04-01T13:48:57.441Z,1.97
2019-04-01T13:51:20.117Z,1.93
2019-04-01T13:53:48.586Z,1.80
2019-04-01T13:56:17.067Z,1.80
2019-04-01T13:58:45.546Z,2.03
2019-04-01T14:01:14.001Z,1.97
2019-04-01T14:03:42.479Z,1.83
2019-04-01T14:06:10.942Z,2.20
2019-04-01T14:08:39.401Z,1.87
2019-04-01T14:11:08.028Z,1.70
2019-04-01T14:13:36.498Z,2.20
2019-04-01T14:16:04.975Z,1.40
2019-04-01T14:18:33.411Z,1.63
2019-04-01T14:21:15.281Z,1.90
2019-04-01T14:23:32.037Z,1.77
2019-04-01T14:26:00.541Z,1.73
2019-04-01T14:28:29.039Z,1.77
2019-04-01T14:30:57.520Z,1.80
2019-04-01T14:33:25.973Z,1.90
2019-04-01T14:35:54.481Z,2.03
2019-04-01T14:38:22.945Z,1.87
2019-04-01T14:40:51.434Z,1.80
2019-04-01T14:43:19.870Z,1.93
2019-04-01T14:45:48.391Z,1.60
2019-04-01T14:48:16.819Z,1.60
2019-04-01T14:50:45.296Z,1.70
2019-04-01T14:53:13.764Z,2.20
2019-04-01T14:55:42.260Z,2.00
2019-04-01T14:58:10.829Z,1.90
2019-04-01T15:00:42.521Z,1.50
2019-04-01T15:03:15.971Z,1.87
2019-04-01T15:05:46.258Z,1.93
2019-04-01T15:08:15.175Z,1.50
2019-04-01T15:10:45.319Z,2.00
2019-04-01T15:13:13.870Z,1.90
2019-04-01T15:15:43.339Z,1.70
2019-04-01T15:18:16.524Z,1.83
2019-04-01T15:20:50.055Z,2.20
2019-04-01T15:23:20.256Z,1.57
2019-04-01T15:25:48.727Z,1.77
2019-04-01T15:28:17.262Z,1.70
2019-04-01T15:30:45.718Z,1.93
2019-04-01T15:33:14.204Z,1.80
2019-04-01T15:35:42.665Z,1.57
2019-04-01T15:38:11.138Z,1.60
2019-04-01T15:40:39.613Z,1.73
2019-04-01T15:43:08.137Z,1.50
2019-04-01T15:45:36.589Z,1.80
2019-04-01T15:48:05.080Z,1.40
2019-04-01T15:50:33.577Z,2.17
2019-04-01T15:53:02.113Z,1.77
2019-04-01T15:55:31.611Z,1.67
2019-04-01T15:58:00.193Z,1.60
2019-04-01T16:00:28.801Z,2.07
2019-04-01T16:02:57.292Z,2.10
2019-04-01T16:05:25.822Z,2.13
2019-04-01T16:07:54.287Z,2.00
2019-04-01T16:10:22.825Z,1.93
2019-04-01T16:12:51.304Z,1.90
2019-04-01T16:15:19.744Z,2.07
2019-04-01T16:17:48.286Z,1.70
2019-04-01T16:20:16.816Z,2.00
2019-04-01T16:22:45.314Z,2.07
2019-04-01T16:25:13.848Z,1.90
2019-04-01T16:27:43.026Z,1.90
2019-04-01T16:30:11.791Z,1.93
2019-04-01T16:32:40.410Z,2.30
2019-04-01T16:35:09.092Z,2.60
2019-04-01T16:37:37.590Z,2.40
2019-04-01T16:40:06.413Z,2.70
2019-04-01T16:42:34.906Z,2.60
2019-04-01T16:45:04.868Z,2.23
2019-04-01T16:47:33.370Z,2.37
2019-04-01T16:50:01.840Z,2.70
2019-04-01T16:52:30.563Z,2.30
2019-04-01T16:54:59.659Z,2.67
2019-04-01T16:57:28.193Z,2.27
2019-04-01T16:59:57.130Z,2.57
2019-04-01T17:02:25.770Z,2.20
2019-04-01T17:04:54.247Z,2.63
2019-04-01T17:07:22.802Z,2.50
2019-04-01T17:09:51.308Z,2.50
2019-04-01T17:12:19.762Z,2.80
2019-04-01T17:14:48.237Z,2.30
2019-04-01T17:17:16.722Z,3.07
2019-04-01T17:19:45.209Z,2.57
2019-04-01T17:22:13.683Z,2.73
2019-04-01T17:24:42.209Z,2.63
2019-04-01T17:27:11.912Z,2.90
2019-04-01T17:29:42.520Z,2.60
2019-04-01T17:32:11.107Z,2.60
2019-04-01T17:34:39.595Z,2.60
2019-04-01T17:37:08.281Z,3.07
2019-04-01T17:39:37.578Z,2.57
2019-04-01T17:42:06.161Z,2.50
2019-04-01T17:44:34.597Z,2.67
2019-04-01T17:47:03.173Z,2.70
2019-04-01T17:49:31.589Z,3.17
2019-04-01T17:52:00.076Z,3.30
2019-04-01T17:54:28.530Z,2.97
2019-04-01T17:56:57.056Z,2.83
2019-04-01T17:59:25.494Z,2.30
2019-04-01T18:01:56.890Z,2.80
2019-04-01T18:04:24.255Z,2.50
2019-04-01T18:06:52.804Z,2.60
2019-04-01T18:09:21.257Z,2.00
2019-04-01T18:11:49.756Z,2.33
2019-04-01T18:14:19.280Z,2.43
2019-04-01T18:16:48.111Z,2.63
2019-04-01T18:19:16.585Z,2.57
2019-04-01T18:21:45.066Z,2.57
2019-04-01T18:24:13.625Z,2.67
2019-04-01T18:26:42.101Z,2.70
2019-04-01T18:29:10.561Z,3.60
2019-04-01T18:31:39.114Z,3.00
2019-04-01T18:34:07.641Z,3.57
2019-04-01T18:36:38.778Z,3.97
2019-04-01T18:39:08.704Z,3.90
2019-04-01T18:41:37.247Z,4.53
2019-04-01T18:44:06.229Z,4.50
2019-04-01T18:46:34.830Z,4.03
2019-04-01T18:49:03.623Z,4.60
2019-04-01T18:51:32.136Z,3.73
2019-04-01T18:54:00.695Z,3.50
2019-04-01T18:56:29.477Z,2.93
2019-04-01T18:58:58.021Z,3.40
2019-04-01T19:01:26.564Z,3.40
2019-04-01T19:03:55.079Z,3.40
2019-04-01T19:06:23.597Z,3.47
2019-04-01T19:08:52.108Z,3.03
2019-04-01T19:11:20.542Z,3.93
2019-04-01T19:13:49.136Z,3.87
2019-04-01T19:16:17.582Z,3.90
2019-04-01T19:18:46.116Z,3.97
2019-04-01T19:21:14.549Z,3.30
2019-04-01T19:23:43.059Z,3.10
2019-04-01T19:26:11.483Z,2.90
2019-04-01T19:28:39.966Z,3.40
2019-04-01T19:31:08.420Z,3.40
2019-04-01T19:33:38.069Z,4.40
2019-04-01T19:36:06.675Z,4.40
2019-04-01T19:38:35.170Z,4.30
2019-04-01T19:41:03.608Z,3.30
2019-04-01T19:43:32.090Z,2.90
2019-04-01T19:46:00.527Z,3.80
2019-04-01T19:48:29.008Z,2.70
2019-04-01T19:50:59.081Z,2.70
2019-04-01T19:53:27.867Z,3.60
2019-04-01T19:55:56.307Z,3.50
2019-04-01T19:58:25.538Z,3.60
2019-04-01T20:00:54.425Z,2.83
2019-04-01T20:03:22.952Z,2.63
2019-04-01T20:05:51.388Z,3.30
2019-04-01T20:08:19.941Z,3.13
2019-04-01T20:10:48.427Z,2.80
2019-04-01T20:13:16.933Z,3.37
2019-04-01T20:15:45.452Z,3.10
2019-04-01T20:18:13.931Z,3.20
2019-04-01T20:20:42.439Z,3.10
2019-04-01T20:23:10.915Z,3.17
2019-04-01T20:25:39.357Z,3.40
2019-04-01T20:28:07.891Z,2.90
2019-04-01T20:30:37.931Z,3.00
2019-04-01T20:33:16.986Z,2.63
2019-04-01T20:35:36.638Z,2.90
2019-04-01T20:38:05.190Z,3.00
2019-04-01T20:40:33.633Z,2.80
2019-04-01T20:43:02.107Z,3.27
2019-04-01T20:45:30.614Z,2.90
2019-04-01T20:47:59.083Z,2.90
2019-04-01T20:50:28.147Z,3.00
2019-04-01T20:52:56.989Z,3.00
2019-04-01T20:55:25.422Z,2.90
2019-04-01T20:57:53.908Z,2.80
2019-04-01T21:00:22.377Z,3.30
2019-04-01T21:02:50.864Z,3.17
2019-04-01T21:05:19.373Z,3.43
2019-04-01T21:07:47.936Z,3.00
2019-04-01T21:10:16.639Z,2.57
2019-04-01T21:12:45.187Z,3.20
2019-04-01T21:15:13.705Z,3.13
2019-04-01T21:17:42.196Z,3.30
2019-04-01T21:20:10.852Z,3.17
2019-04-01T21:22:39.311Z,2.93
2019-04-01T21:25:07.889Z,3.10
2019-04-01T21:27:36.353Z,3.10
2019-04-01T21:30:11.095Z,3.57
2019-04-01T21:32:39.556Z,3.10
2019-04-01T21:35:09.076Z,2.90
2019-04-01T21:37:37.907Z,3.30
2019-04-01T21:40:07.605Z,3.23
2019-04-01T21:42:36.250Z,3.07
2019-04-01T21:45:07.044Z,3.47
2019-04-01T21:47:35.501Z,2.93
2019-04-01T21:50:06.468Z,3.40
2019-04-01T21:52:35.366Z,2.83
2019-04-01T21:55:07.721Z,3.30
2019-04-01T21:57:34.917Z,3.60
2019-04-01T22:00:04.542Z,3.27
2019-04-01T22:02:36.128Z,3.60
2019-04-01T22:05:03.206Z,3.43
2019-04-01T22:07:31.677Z,2.90
2019-04-01T22:10:00.128Z,2.93
2019-04-01T22:12:28.608Z,3.30
2019-04-01T22:14:57.060Z,3.77
2019-04-01T22:17:25.511Z,4.33
2019-04-01T22:19:53.956Z,3.80
2019-04-01T22:22:22.474Z,3.57
2019-04-01T22:24:50.917Z,4.00
2019-04-01T22:27:19.367Z,3.47
2019-04-01T22:29:48.137Z,3.73
2019-04-01T22:32:17.359Z,3.90
2019-04-01T22:34:45.809Z,3.77
2019-04-01T22:37:26.431Z,3.40
2019-04-01T22:39:45.541Z,3.80
2019-04-01T22:42:14.054Z,3.50
2019-04-01T22:44:42.549Z,3.90
2019-04-01T22:47:10.999Z,3.70
2019-04-01T22:49:41.132Z,3.83
2019-04-01T22:52:10.593Z,3.83
2019-04-01T22:54:39.120Z,4.27
2019-04-01T22:57:07.565Z,3.90
2019-04-01T22:59:36.035Z,3.93
2019-04-01T23:02:04.663Z,3.87
2019-04-01T23:04:33.153Z,4.00
2019-04-01T23:07:01.610Z,4.13
2019-04-01T23:09:30.038Z,3.80
2019-04-01T23:11:58.522Z,3.57
2019-04-01T23:14:26.997Z,3.87
2019-04-01T23:16:55.537Z,4.10
2019-04-01T23:19:23.958Z,4.07
2019-04-01T23:21:52.428Z,4.53
2019-04-01T23:24:20.875Z,4.27
2019-04-01T23:26:49.349Z,4.50
2019-04-01T23:29:17.830Z,3.77
2019-04-01T23:31:47.199Z,4.00
2019-04-01T23:34:15.921Z,4.77
2019-04-01T23:36:44.465Z,4.47
2019-04-01T23:39:12.893Z,4.10
2019-04-01T23:41:41.369Z,4.33
2019-04-01T23:44:09.828Z,4.10
2019-04-01T23:46:38.292Z,3.80
2019-04-01T23:49:06.730Z,4.40
2019-04-01T23:51:36.232Z,4.80
2019-04-01T23:54:05.071Z,4.77
2019-04-01T23:56:33.551Z,4.20
2019-04-01T23:59:01.992Z,4.13
